sensor_id;sensor_type;location;lat;lon;timestamp;pressure;altitude;pressure_sealevel;temperature;humidity
71109;BME280;59614;51.012;-1.648;2023-05-10T00:01:51;100271.63;;;12.03;100.00
71109;BME280;59614;51.012;-1.648;2023-05-10T00:04:17;100267.50;;;11.89;100.00
71109;BME280;59614;51.012;-1.648;2023-05-10T00:06:42;100267.34;;;11.96;100.00
71109;BME280;59614;51.012;-1.648;2023-05-10T00:09:08;100268.81;;;11.71;100.00
71109;BME280;59614;51.012;-1.648;2023-05-10T00:11:33;100271.13;;;11.85;100.00
71109;BME280;59614;51.012;-1.648;2023-05-10T00:13:58;100271.13;;;11.85;100.00
71109;BME280;59614;51.012;-1.648;2023-05-10T00:16:24;100261.84;;;11.67;100.00
71109;BME280;59614;51.012;-1.648;2023-05-10T00:18:49;100262.16;;;11.53;100.00
71109;BME280;59614;51.012;-1.648;2023-05-10T00:21:15;100270.88;;;11.58;100.00
71109;BME280;59614;51.012;-1.648;2023-05-10T00:23:40;100274.28;;;11.64;100.00
71109;BME280;59614;51.012;-1.648;2023-05-10T00:26:06;100270.78;;;11.62;100.00
71109;BME280;59614;51.012;-1.648;2023-05-10T00:28:31;100269.75;;;11.69;100.00
71109;BME280;59614;51.012;-1.648;2023-05-10T00:30:56;100276.06;;;11.63;100.00
71109;BME280;59614;51.012;-1.648;2023-05-10T00:33:22;100272.63;;;11.58;100.00
71109;BME280;59614;51.012;-1.648;2023-05-10T00:35:47;100274.44;;;11.57;100.00
71109;BME280;59614;51.012;-1.648;2023-05-10T00:38:13;100269.97;;;11.59;100.00
71109;BME280;59614;51.012;-1.648;2023-05-10T00:40:39;100274.59;;;11.50;100.00
71109;BME280;59614;51.012;-1.648;2023-05-10T00:43:04;100268.81;;;11.32;100.00
71109;BME280;59614;51.012;-1.648;2023-05-10T00:45:32;100268.72;;;11.37;100.00
71109;BME280;59614;51.012;-1.648;2023-05-10T00:47:59;100274.22;;;11.26;100.00
71109;BME280;59614;51.012;-1.648;2023-05-10T00:50:26;100276.56;;;11.40;100.00
71109;BME280;59614;51.012;-1.648;2023-05-10T00:52:51;100279.28;;;11.37;100.00
71109;BME280;59614;51.012;-1.648;2023-05-10T00:55:18;100281.22;;;11.28;100.00
71109;BME280;59614;51.012;-1.648;2023-05-10T00:57:44;100279.66;;;11.18;100.00
71109;BME280;59614;51.012;-1.648;2023-05-10T01:00:10;100283.97;;;11.24;100.00
71109;BME280;59614;51.012;-1.648;2023-05-10T01:02:36;100278.88;;;11.15;100.00
71109;BME280;59614;51.012;-1.648;2023-05-10T01:05:02;100287.59;;;11.18;100.00
71109;BME280;59614;51.012;-1.648;2023-05-10T01:07:31;100292.88;;;11.20;100.00
71109;BME280;59614;51.012;-1.648;2023-05-10T01:09:56;100291.88;;;11.25;100.00
71109;BME280;59614;51.012;-1.648;2023-05-10T01:12:22;100295.41;;;11.24;100.00
71109;BME280;59614;51.012;-1.648;2023-05-10T01:14:48;100293.78;;;11.17;100.00
71109;BME280;59614;51.012;-1.648;2023-05-10T01:17:14;100296.66;;;11.05;100.00
71109;BME280;59614;51.012;-1.648;2023-05-10T01:19:40;100299.25;;;11.08;100.00
71109;BME280;59614;51.012;-1.648;2023-05-10T01:28:47;100294.47;;;10.85;100.00
71109;BME280;59614;51.012;-1.648;2023-05-10T01:31:51;100297.66;;;11.01;100.00
71109;BME280;59614;51.012;-1.648;2023-05-10T01:34:20;100303.19;;;10.88;100.00
71109;BME280;59614;51.012;-1.648;2023-05-10T01:37:08;100299.16;;;11.12;100.00
71109;BME280;59614;51.012;-1.648;2023-05-10T01:42:17;100296.03;;;10.93;100.00
71109;BME280;59614;51.012;-1.648;2023-05-10T01:45:07;100296.19;;;10.86;100.00
71109;BME280;59614;51.012;-1.648;2023-05-10T01:47:42;100301.38;;;10.90;100.00
71109;BME280;59614;51.012;-1.648;2023-05-10T01:50:17;100300.56;;;10.87;100.00
71109;BME280;59614;51.012;-1.648;2023-05-10T01:52:51;100293.78;;;10.73;100.00
71109;BME280;59614;51.012;-1.648;2023-05-10T01:55:21;100300.69;;;10.80;100.00
71109;BME280;59614;51.012;-1.648;2023-05-10T01:57:51;100304.13;;;10.86;100.00
71109;BME280;59614;51.012;-1.648;2023-05-10T02:00:18;100305.91;;;10.84;100.00
71109;BME280;59614;51.012;-1.648;2023-05-10T02:02:46;100298.13;;;10.76;100.00
71109;BME280;59614;51.012;-1.648;2023-05-10T02:05:13;100307.19;;;10.62;100.00
71109;BME280;59614;51.012;-1.648;2023-05-10T02:07:40;100317.38;;;10.81;100.00
71109;BME280;59614;51.012;-1.648;2023-05-10T02:10:07;100311.38;;;10.74;100.00
71109;BME280;59614;51.012;-1.648;2023-05-10T02:12:36;100318.19;;;10.86;100.00
71109;BME280;59614;51.012;-1.648;2023-05-10T02:15:05;100313.94;;;10.79;100.00
71109;BME280;59614;51.012;-1.648;2023-05-10T02:17:37;100317.50;;;10.75;100.00
71109;BME280;59614;51.012;-1.648;2023-05-10T02:20:06;100317.56;;;10.72;100.00
71109;BME280;59614;51.012;-1.648;2023-05-10T02:22:33;100314.84;;;10.76;100.00
71109;BME280;59614;51.012;-1.648;2023-05-10T02:25:01;100318.34;;;10.77;100.00
71109;BME280;59614;51.012;-1.648;2023-05-10T02:27:28;100309.47;;;10.81;100.00
71109;BME280;59614;51.012;-1.648;2023-05-10T02:29:54;100319.97;;;10.84;100.00
71109;BME280;59614;51.012;-1.648;2023-05-10T02:32:21;100312.00;;;10.87;100.00
71109;BME280;59614;51.012;-1.648;2023-05-10T02:34:48;100324.41;;;10.82;100.00
71109;BME280;59614;51.012;-1.648;2023-05-10T02:37:18;100327.94;;;10.81;100.00
71109;BME280;59614;51.012;-1.648;2023-05-10T02:39:45;100321.72;;;10.85;100.00
71109;BME280;59614;51.012;-1.648;2023-05-10T02:42:15;100326.22;;;10.80;100.00
71109;BME280;59614;51.012;-1.648;2023-05-10T02:44:43;100328.69;;;10.88;100.00
71109;BME280;59614;51.012;-1.648;2023-05-10T02:47:09;100330.47;;;10.87;100.00
71109;BME280;59614;51.012;-1.648;2023-05-10T02:49:35;100324.50;;;10.79;100.00
71109;BME280;59614;51.012;-1.648;2023-05-10T02:52:04;100321.19;;;10.68;100.00
71109;BME280;59614;51.012;-1.648;2023-05-10T02:54:33;100327.88;;;10.86;100.00
71109;BME280;59614;51.012;-1.648;2023-05-10T02:57:04;100326.94;;;10.87;100.00
71109;BME280;59614;51.012;-1.648;2023-05-10T02:59:30;100333.22;;;10.81;100.00
71109;BME280;59614;51.012;-1.648;2023-05-10T03:01:56;100326.31;;;10.74;100.00
71109;BME280;59614;51.012;-1.648;2023-05-10T03:04:21;100343.28;;;10.62;100.00
71109;BME280;59614;51.012;-1.648;2023-05-10T03:06:47;100345.81;;;10.66;100.00
71109;BME280;59614;51.012;-1.648;2023-05-10T03:09:13;100342.38;;;10.61;100.00
71109;BME280;59614;51.012;-1.648;2023-05-10T03:14:32;100343.09;;;10.71;100.00
71109;BME280;59614;51.012;-1.648;2023-05-10T03:17:16;100336.97;;;10.69;100.00
71109;BME280;59614;51.012;-1.648;2023-05-10T03:19:55;100349.38;;;10.65;100.00
71109;BME280;59614;51.012;-1.648;2023-05-10T03:22:42;100346.72;;;10.65;100.00
71109;BME280;59614;51.012;-1.648;2023-05-10T03:25:11;100348.38;;;10.70;100.00
71109;BME280;59614;51.012;-1.648;2023-05-10T03:27:41;100347.63;;;10.64;100.00
71109;BME280;59614;51.012;-1.648;2023-05-10T03:30:11;100341.56;;;10.58;100.00
71109;BME280;59614;51.012;-1.648;2023-05-10T03:32:36;100345.31;;;10.46;100.00
71109;BME280;59614;51.012;-1.648;2023-05-10T03:35:12;100349.66;;;10.48;100.00
71109;BME280;59614;51.012;-1.648;2023-05-10T03:37:40;100341.00;;;10.40;100.00
71109;BME280;59614;51.012;-1.648;2023-05-10T03:40:06;100348.94;;;10.39;100.00
71109;BME280;59614;51.012;-1.648;2023-05-10T03:42:32;100342.78;;;10.36;100.00
71109;BME280;59614;51.012;-1.648;2023-05-10T03:44:57;100348.00;;;10.43;100.00
71109;BME280;59614;51.012;-1.648;2023-05-10T03:47:23;100350.56;;;10.47;100.00
71109;BME280;59614;51.012;-1.648;2023-05-10T03:49:48;100355.84;;;10.47;100.00
71109;BME280;59614;51.012;-1.648;2023-05-10T03:52:13;100354.84;;;10.53;100.00
71109;BME280;59614;51.012;-1.648;2023-05-10T03:54:39;100358.44;;;10.50;100.00
71109;BME280;59614;51.012;-1.648;2023-05-10T03:57:04;100355.72;;;10.55;100.00
71109;BME280;59614;51.012;-1.648;2023-05-10T03:59:30;100356.63;;;10.53;100.00
71109;BME280;59614;51.012;-1.648;2023-05-10T04:01:55;100362.66;;;10.61;100.00
71109;BME280;59614;51.012;-1.648;2023-05-10T04:04:21;100367.03;;;10.60;100.00
71109;BME280;59614;51.012;-1.648;2023-05-10T04:06:47;100365.38;;;10.56;100.00
71109;BME280;59614;51.012;-1.648;2023-05-10T04:09:12;100362.84;;;10.48;100.00
71109;BME280;59614;51.012;-1.648;2023-05-10T04:11:38;100371.72;;;10.44;100.00
71109;BME280;59614;51.012;-1.648;2023-05-10T04:14:03;100369.19;;;10.38;100.00
71109;BME280;59614;51.012;-1.648;2023-05-10T04:16:28;100370.97;;;10.34;100.00
71109;BME280;59614;51.012;-1.648;2023-05-10T04:18:54;100376.16;;;10.41;100.00
71109;BME280;59614;51.012;-1.648;2023-05-10T04:21:19;100369.09;;;10.43;100.00
71109;BME280;59614;51.012;-1.648;2023-05-10T04:23:45;100367.38;;;10.42;100.00
71109;BME280;59614;51.012;-1.648;2023-05-10T04:26:10;100368.31;;;10.36;100.00
71109;BME280;59614;51.012;-1.648;2023-05-10T04:28:36;100374.50;;;10.33;100.00
71109;BME280;59614;51.012;-1.648;2023-05-10T04:31:09;100370.94;;;10.38;100.00
71109;BME280;59614;51.012;-1.648;2023-05-10T04:33:35;100367.50;;;10.32;100.00
71109;BME280;59614;51.012;-1.648;2023-05-10T04:36:01;100372.84;;;10.26;100.00
71109;BME280;59614;51.012;-1.648;2023-05-10T04:38:28;100378.72;;;10.45;100.00
71109;BME280;59614;51.012;-1.648;2023-05-10T04:40:54;100375.94;;;10.55;100.00
71109;BME280;59614;51.012;-1.648;2023-05-10T04:43:28;100379.47;;;10.55;100.00
71109;BME280;59614;51.012;-1.648;2023-05-10T04:45:56;100381.00;;;10.69;100.00
71109;BME280;59614;51.012;-1.648;2023-05-10T04:48:21;100379.84;;;10.82;100.00
71109;BME280;59614;51.012;-1.648;2023-05-10T04:50:47;100383.31;;;10.86;100.00
71109;BME280;59614;51.012;-1.648;2023-05-10T04:53:12;100384.94;;;10.93;100.00
71109;BME280;59614;51.012;-1.648;2023-05-10T04:55:38;100382.97;;;11.04;100.00
71109;BME280;59614;51.012;-1.648;2023-05-10T04:58:03;100385.47;;;11.12;100.00
71109;BME280;59614;51.012;-1.648;2023-05-10T05:00:28;100385.56;;;11.07;100.00
71109;BME280;59614;51.012;-1.648;2023-05-10T05:02:54;100389.06;;;11.08;100.00
71109;BME280;59614;51.012;-1.648;2023-05-10T05:05:19;100389.06;;;11.08;100.00
71109;BME280;59614;51.012;-1.648;2023-05-10T05:07:45;100393.31;;;11.15;100.00
71109;BME280;59614;51.012;-1.648;2023-05-10T05:10:10;100400.34;;;11.18;100.00
71109;BME280;59614;51.012;-1.648;2023-05-10T05:12:36;100396.03;;;11.12;100.00
71109;BME280;59614;51.012;-1.648;2023-05-10T05:15:02;100395.28;;;11.04;100.00
71109;BME280;59614;51.012;-1.648;2023-05-10T05:17:30;100389.91;;;11.10;100.00
71109;BME280;59614;51.012;-1.648;2023-05-10T05:19:55;100398.69;;;11.12;100.00
71109;BME280;59614;51.012;-1.648;2023-05-10T05:22:21;100405.53;;;11.21;100.00
71109;BME280;59614;51.012;-1.648;2023-05-10T05:24:53;100413.31;;;11.28;100.00
71109;BME280;59614;51.012;-1.648;2023-05-10T05:27:18;100411.41;;;11.37;100.00
71109;BME280;59614;51.012;-1.648;2023-05-10T05:29:46;100408.44;;;11.54;100.00
71109;BME280;59614;51.012;-1.648;2023-05-10T05:32:11;100421.66;;;11.52;100.00
71109;BME280;59614;51.012;-1.648;2023-05-10T05:34:36;100419.84;;;11.54;100.00
71109;BME280;59614;51.012;-1.648;2023-05-10T05:37:02;100423.28;;;11.59;100.00
71109;BME280;59614;51.012;-1.648;2023-05-10T05:39:27;100422.75;;;11.84;100.00
71109;BME280;59614;51.012;-1.648;2023-05-10T05:41:53;100421.16;;;11.77;100.00
71109;BME280;59614;51.012;-1.648;2023-05-10T05:44:18;100428.59;;;11.58;100.00
71109;BME280;59614;51.012;-1.648;2023-05-10T05:46:43;100416.19;;;11.62;100.00
71109;BME280;59614;51.012;-1.648;2023-05-10T05:49:09;100431.94;;;11.66;100.00
71109;BME280;59614;51.012;-1.648;2023-05-10T05:51:35;100436.16;;;11.75;100.00
71109;BME280;59614;51.012;-1.648;2023-05-10T05:54:00;100439.75;;;11.72;100.00
71109;BME280;59614;51.012;-1.648;2023-05-10T05:56:26;100449.25;;;11.83;100.00
71109;BME280;59614;51.012;-1.648;2023-05-10T05:58:52;100447.34;;;11.89;100.00
71109;BME280;59614;51.012;-1.648;2023-05-10T06:01:18;100449.75;;;12.00;100.00
71109;BME280;59614;51.012;-1.648;2023-05-10T06:03:43;100456.59;;;12.11;100.00
71109;BME280;59614;51.012;-1.648;2023-05-10T06:06:09;100459.94;;;12.19;100.00
71109;BME280;59614;51.012;-1.648;2023-05-10T06:08:34;100451.13;;;12.20;100.00
71109;BME280;59614;51.012;-1.648;2023-05-10T06:11:00;100447.38;;;12.29;100.00
71109;BME280;59614;51.012;-1.648;2023-05-10T06:13:25;100450.09;;;12.26;100.00
71109;BME280;59614;51.012;-1.648;2023-05-10T06:15:57;100453.66;;;12.23;100.00
71109;BME280;59614;51.012;-1.648;2023-05-10T06:18:23;100457.31;;;12.17;100.00
71109;BME280;59614;51.012;-1.648;2023-05-10T06:20:49;100454.28;;;12.34;100.00
71109;BME280;59614;51.012;-1.648;2023-05-10T06:23:14;100459.28;;;12.47;100.00
71109;BME280;59614;51.012;-1.648;2023-05-10T06:25:40;100455.63;;;12.52;100.00
71109;BME280;59614;51.012;-1.648;2023-05-10T06:28:05;100456.53;;;12.53;100.00
71109;BME280;59614;51.012;-1.648;2023-05-10T06:30:31;100465.88;;;12.68;100.00
71109;BME280;59614;51.012;-1.648;2023-05-10T06:32:56;100457.38;;;12.90;100.00
71109;BME280;59614;51.012;-1.648;2023-05-10T06:35:22;100462.94;;;12.79;100.00
71109;BME280;59614;51.012;-1.648;2023-05-10T06:37:48;100472.72;;;12.77;100.00
71109;BME280;59614;51.012;-1.648;2023-05-10T06:40:14;100471.53;;;12.89;100.00
71109;BME280;59614;51.012;-1.648;2023-05-10T06:42:39;100460.16;;;12.85;100.00
71109;BME280;59614;51.012;-1.648;2023-05-10T06:45:05;100461.28;;;13.09;100.00
71109;BME280;59614;51.012;-1.648;2023-05-10T06:47:31;100462.81;;;13.18;100.00
71109;BME280;59614;51.012;-1.648;2023-05-10T06:49:56;100461.41;;;13.39;100.00
71109;BME280;59614;51.012;-1.648;2023-05-10T06:52:22;100474.38;;;13.50;100.00
71109;BME280;59614;51.012;-1.648;2023-05-10T06:54:48;100465.78;;;13.72;100.00
71109;BME280;59614;51.012;-1.648;2023-05-10T06:57:13;100471.88;;;13.75;100.00
71109;BME280;59614;51.012;-1.648;2023-05-10T06:59:39;100473.53;;;14.10;100.00
71109;BME280;59614;51.012;-1.648;2023-05-10T07:02:04;100469.50;;;13.96;97.55
71109;BME280;59614;51.012;-1.648;2023-05-10T07:04:30;100467.09;;;14.18;98.18
71109;BME280;59614;51.012;-1.648;2023-05-10T07:06:56;100471.66;;;13.83;98.88
71109;BME280;59614;51.012;-1.648;2023-05-10T07:09:22;100480.75;;;14.34;99.69
71109;BME280;59614;51.012;-1.648;2023-05-10T07:11:48;100478.81;;;14.11;99.07
71109;BME280;59614;51.012;-1.648;2023-05-10T07:14:14;100474.56;;;14.05;95.98
71109;BME280;59614;51.012;-1.648;2023-05-10T07:16:39;100468.16;;;14.70;95.45
71109;BME280;59614;51.012;-1.648;2023-05-10T07:19:04;100467.34;;;15.20;96.90
71109;BME280;59614;51.012;-1.648;2023-05-10T07:21:30;100462.59;;;15.29;95.07
71109;BME280;59614;51.012;-1.648;2023-05-10T07:23:56;100487.47;;;15.78;95.61
71109;BME280;59614;51.012;-1.648;2023-05-10T07:26:21;100472.53;;;14.97;93.35
71109;BME280;59614;51.012;-1.648;2023-05-10T07:28:47;100486.78;;;14.96;97.17
71109;BME280;59614;51.012;-1.648;2023-05-10T07:31:12;100481.34;;;14.73;95.65
71109;BME280;59614;51.012;-1.648;2023-05-10T07:33:38;100485.44;;;14.83;96.27
71109;BME280;59614;51.012;-1.648;2023-05-10T07:36:03;100481.78;;;15.12;98.50
71109;BME280;59614;51.012;-1.648;2023-05-10T07:38:29;100491.53;;;15.12;99.13
71109;BME280;59614;51.012;-1.648;2023-05-10T07:40:54;100484.06;;;15.23;97.48
71109;BME280;59614;51.012;-1.648;2023-05-10T07:43:19;100495.47;;;14.75;92.57
71109;BME280;59614;51.012;-1.648;2023-05-10T07:45:45;100492.19;;;15.19;95.79
71109;BME280;59614;51.012;-1.648;2023-05-10T07:48:10;100489.28;;;15.26;94.81
71109;BME280;59614;51.012;-1.648;2023-05-10T07:50:36;100484.16;;;15.71;90.78
71109;BME280;59614;51.012;-1.648;2023-05-10T07:53:01;100487.44;;;15.28;91.36
71109;BME280;59614;51.012;-1.648;2023-05-10T07:55:27;100494.63;;;15.00;94.36
71109;BME280;59614;51.012;-1.648;2023-05-10T07:57:52;100477.66;;;15.04;94.06
71109;BME280;59614;51.012;-1.648;2023-05-10T08:00:19;100488.91;;;14.85;92.76
71109;BME280;59614;51.012;-1.648;2023-05-10T08:02:45;100486.78;;;14.96;97.42
71109;BME280;59614;51.012;-1.648;2023-05-10T08:05:10;100489.09;;;15.06;95.36
71109;BME280;59614;51.012;-1.648;2023-05-10T08:07:36;100490.94;;;15.80;95.90
71109;BME280;59614;51.012;-1.648;2023-05-10T08:10:02;100486.97;;;16.15;93.18
71109;BME280;59614;51.012;-1.648;2023-05-10T08:12:28;100485.78;;;16.89;91.53
71109;BME280;59614;51.012;-1.648;2023-05-10T08:14:53;100489.84;;;16.77;92.64
71109;BME280;59614;51.012;-1.648;2023-05-10T08:17:18;100484.56;;;16.09;87.67
71109;BME280;59614;51.012;-1.648;2023-05-10T08:19:44;100491.00;;;16.70;88.07
71109;BME280;59614;51.012;-1.648;2023-05-10T08:22:09;100487.41;;;16.71;82.45
71109;BME280;59614;51.012;-1.648;2023-05-10T08:24:35;100490.03;;;16.95;88.49
71109;BME280;59614;51.012;-1.648;2023-05-10T08:27:04;100487.13;;;17.42;84.15
71109;BME280;59614;51.012;-1.648;2023-05-10T08:29:30;100484.34;;;17.65;85.47
71109;BME280;59614;51.012;-1.648;2023-05-10T08:31:55;100486.72;;;17.10;88.57
71109;BME280;59614;51.012;-1.648;2023-05-10T08:34:21;100480.19;;;17.18;86.65
71109;BME280;59614;51.012;-1.648;2023-05-10T08:36:46;100482.31;;;17.09;82.65
71109;BME280;59614;51.012;-1.648;2023-05-10T08:39:11;100476.38;;;17.03;85.43
71109;BME280;59614;51.012;-1.648;2023-05-10T08:41:39;100492.13;;;16.87;87.56
71109;BME280;59614;51.012;-1.648;2023-05-10T08:44:07;100485.78;;;17.11;88.98
71109;BME280;59614;51.012;-1.648;2023-05-10T08:46:33;100493.06;;;17.89;87.73
71109;BME280;59614;51.012;-1.648;2023-05-10T08:49:06;100479.59;;;17.71;81.55
71109;BME280;59614;51.012;-1.648;2023-05-10T08:51:36;100485.81;;;17.91;80.22
71109;BME280;59614;51.012;-1.648;2023-05-10T08:54:03;100484.50;;;18.01;85.10
71109;BME280;59614;51.012;-1.648;2023-05-10T08:56:29;100483.66;;;17.40;84.05
71109;BME280;59614;51.012;-1.648;2023-05-10T08:58:55;100489.56;;;18.08;88.31
71109;BME280;59614;51.012;-1.648;2023-05-10T09:01:21;100484.09;;;18.66;81.13
71109;BME280;59614;51.012;-1.648;2023-05-10T09:03:47;100477.22;;;19.33;84.60
71109;BME280;59614;51.012;-1.648;2023-05-10T09:06:13;100477.72;;;19.74;76.50
71109;BME280;59614;51.012;-1.648;2023-05-10T09:08:40;100478.78;;;19.37;79.28
71109;BME280;59614;51.012;-1.648;2023-05-10T09:11:07;100483.63;;;18.95;85.23
71109;BME280;59614;51.012;-1.648;2023-05-10T09:13:35;100487.56;;;17.92;82.30
71109;BME280;59614;51.012;-1.648;2023-05-10T09:16:01;100486.44;;;18.17;76.50
71109;BME280;59614;51.012;-1.648;2023-05-10T09:18:27;100481.41;;;19.03;79.95
71109;BME280;59614;51.012;-1.648;2023-05-10T09:20:53;100482.69;;;18.77;80.32
71109;BME280;59614;51.012;-1.648;2023-05-10T09:23:19;100484.06;;;19.21;78.28
71109;BME280;59614;51.012;-1.648;2023-05-10T09:25:45;100492.16;;;18.28;82.36
71109;BME280;59614;51.012;-1.648;2023-05-10T09:28:11;100494.25;;;18.02;88.38
71109;BME280;59614;51.012;-1.648;2023-05-10T09:30:37;100492.00;;;19.57;84.92
71109;BME280;59614;51.012;-1.648;2023-05-10T09:33:03;100484.94;;;19.21;79.79
71109;BME280;59614;51.012;-1.648;2023-05-10T09:35:30;100483.69;;;19.11;76.66
71109;BME280;59614;51.012;-1.648;2023-05-10T09:38:02;100484.56;;;18.92;77.47
71109;BME280;59614;51.012;-1.648;2023-05-10T09:40:29;100492.09;;;18.11;86.63
71109;BME280;59614;51.012;-1.648;2023-05-10T09:42:56;100493.47;;;18.00;86.17
71109;BME280;59614;51.012;-1.648;2023-05-10T09:45:23;100486.75;;;19.21;82.25
71109;BME280;59614;51.012;-1.648;2023-05-10T09:47:48;100486.25;;;20.15;78.94
71109;BME280;59614;51.012;-1.648;2023-05-10T09:50:14;100479.03;;;19.50;83.16
71109;BME280;59614;51.012;-1.648;2023-05-10T09:52:52;100488.06;;;18.21;79.68
71109;BME280;59614;51.012;-1.648;2023-05-10T09:55:22;100486.00;;;18.26;84.55
71109;BME280;59614;51.012;-1.648;2023-05-10T09:57:49;100482.66;;;18.96;79.78
71109;BME280;59614;51.012;-1.648;2023-05-10T10:00:23;100481.75;;;19.48;80.66
71109;BME280;59614;51.012;-1.648;2023-05-10T10:02:55;100484.81;;;18.88;80.52
71109;BME280;59614;51.012;-1.648;2023-05-10T10:05:31;100489.59;;;18.63;86.03
71109;BME280;59614;51.012;-1.648;2023-05-10T10:07:57;100486.06;;;19.35;75.96
71109;BME280;59614;51.012;-1.648;2023-05-10T10:10:27;100485.41;;;20.14;77.94
71109;BME280;59614;51.012;-1.648;2023-05-10T10:12:54;100482.13;;;18.88;81.76
71109;BME280;59614;51.012;-1.648;2023-05-10T10:15:21;100486.72;;;17.91;82.31
71109;BME280;59614;51.012;-1.648;2023-05-10T10:17:48;100472.28;;;18.53;84.63
71109;BME280;59614;51.012;-1.648;2023-05-10T10:20:14;100478.91;;;18.81;77.97
71109;BME280;59614;51.012;-1.648;2023-05-10T10:22:40;100478.31;;;19.28;74.63
71109;BME280;59614;51.012;-1.648;2023-05-10T10:25:06;100483.47;;;19.67;78.02
71109;BME280;59614;51.012;-1.648;2023-05-10T10:27:55;100473.22;;;19.75;75.37
71109;BME280;59614;51.012;-1.648;2023-05-10T10:30:41;100465.19;;;21.18;79.51
71109;BME280;59614;51.012;-1.648;2023-05-10T10:33:40;100478.03;;;20.66;73.99
71109;BME280;59614;51.012;-1.648;2023-05-10T10:36:12;100480.47;;;20.55;74.97
71109;BME280;59614;51.012;-1.648;2023-05-10T10:38:55;100477.00;;;20.20;73.51
71109;BME280;59614;51.012;-1.648;2023-05-10T10:41:39;100478.03;;;19.35;78.12
71109;BME280;59614;51.012;-1.648;2023-05-10T10:47:06;100482.16;;;19.58;81.21
71109;BME280;59614;51.012;-1.648;2023-05-10T10:52:33;100477.84;;;20.05;81.21
71109;BME280;59614;51.012;-1.648;2023-05-10T10:57:49;100475.63;;;20.77;80.76
71109;BME280;59614;51.012;-1.648;2023-05-10T11:00:33;100468.06;;;20.84;67.81
71109;BME280;59614;51.012;-1.648;2023-05-10T11:03:11;100475.00;;;20.56;69.48
71109;BME280;59614;51.012;-1.648;2023-05-10T11:05:50;100472.22;;;20.74;68.94
71109;BME280;59614;51.012;-1.648;2023-05-10T11:08:31;100478.28;;;20.77;67.09
71109;BME280;59614;51.012;-1.648;2023-05-10T11:16:15;100472.91;;;19.30;75.22
71109;BME280;59614;51.012;-1.648;2023-05-10T11:18:58;100477.38;;;18.94;79.80
71109;BME280;59614;51.012;-1.648;2023-05-10T11:21:25;100473.09;;;18.73;72.71
71109;BME280;59614;51.012;-1.648;2023-05-10T11:23:58;100482.69;;;19.65;73.22
71109;BME280;59614;51.012;-1.648;2023-05-10T11:26:25;100462.38;;;20.42;73.82
71109;BME280;59614;51.012;-1.648;2023-05-10T11:28:53;100475.44;;;20.80;72.10
71109;BME280;59614;51.012;-1.648;2023-05-10T11:31:23;100454.94;;;21.10;67.69
71109;BME280;59614;51.012;-1.648;2023-05-10T11:33:56;100459.88;;;21.47;74.37
71109;BME280;59614;51.012;-1.648;2023-05-10T11:36:33;100455.50;;;21.60;71.27
71109;BME280;59614;51.012;-1.648;2023-05-10T11:38:59;100452.25;;;21.10;70.91
71109;BME280;59614;51.012;-1.648;2023-05-10T11:41:25;100442.44;;;21.68;66.26
71109;BME280;59614;51.012;-1.648;2023-05-10T11:43:52;100453.63;;;22.04;65.86
71109;BME280;59614;51.012;-1.648;2023-05-10T11:46:20;100440.13;;;21.62;71.65
71109;BME280;59614;51.012;-1.648;2023-05-10T11:48:47;100450.84;;;21.48;63.77
71109;BME280;59614;51.012;-1.648;2023-05-10T11:51:14;100455.75;;;21.99;67.24
71109;BME280;59614;51.012;-1.648;2023-05-10T11:53:39;100446.50;;;22.59;62.37
71109;BME280;59614;51.012;-1.648;2023-05-10T11:56:06;100444.34;;;21.95;60.29
71109;BME280;59614;51.012;-1.648;2023-05-10T11:58:33;100448.53;;;21.27;61.88
71109;BME280;59614;51.012;-1.648;2023-05-10T12:00:59;100441.13;;;21.16;61.29
71109;BME280;59614;51.012;-1.648;2023-05-10T12:03:26;100445.03;;;21.10;69.77
71109;BME280;59614;51.012;-1.648;2023-05-10T12:05:52;100441.91;;;21.47;62.37
71109;BME280;59614;51.012;-1.648;2023-05-10T12:08:24;100442.22;;;22.00;64.22
71109;BME280;59614;51.012;-1.648;2023-05-10T12:10:51;100439.09;;;22.63;65.84
71109;BME280;59614;51.012;-1.648;2023-05-10T12:13:16;100446.06;;;22.38;68.10
71109;BME280;59614;51.012;-1.648;2023-05-10T12:15:42;100444.81;;;21.44;60.25
71109;BME280;59614;51.012;-1.648;2023-05-10T12:18:14;100441.22;;;21.29;72.27
71109;BME280;59614;51.012;-1.648;2023-05-10T12:20:41;100444.41;;;21.21;72.82
71109;BME280;59614;51.012;-1.648;2023-05-10T12:23:09;100447.34;;;21.62;73.48
71109;BME280;59614;51.012;-1.648;2023-05-10T12:25:36;100439.31;;;21.17;62.65
71109;BME280;59614;51.012;-1.648;2023-05-10T12:28:03;100441.81;;;21.20;72.35
71109;BME280;59614;51.012;-1.648;2023-05-10T12:30:30;100448.38;;;21.73;62.41
71109;BME280;59614;51.012;-1.648;2023-05-10T12:33:07;100454.69;;;22.01;70.00
71109;BME280;59614;51.012;-1.648;2023-05-10T12:35:33;100453.91;;;21.41;69.98
71109;BME280;59614;51.012;-1.648;2023-05-10T12:38:28;100459.63;;;20.44;67.40
71109;BME280;59614;51.012;-1.648;2023-05-10T12:40:56;100461.56;;;20.26;62.58
71109;BME280;59614;51.012;-1.648;2023-05-10T12:43:21;100468.19;;;20.82;68.31
71109;BME280;59614;51.012;-1.648;2023-05-10T12:45:47;100457.16;;;20.87;68.70
71109;BME280;59614;51.012;-1.648;2023-05-10T12:48:14;100460.31;;;20.63;66.65
71109;BME280;59614;51.012;-1.648;2023-05-10T12:50:40;100458.16;;;20.38;65.89
71109;BME280;59614;51.012;-1.648;2023-05-10T12:53:05;100465.53;;;19.69;70.42
71109;BME280;59614;51.012;-1.648;2023-05-10T12:55:31;100468.72;;;18.89;71.43
71109;BME280;59614;51.012;-1.648;2023-05-10T12:57:56;100470.38;;;19.09;80.25
71109;BME280;59614;51.012;-1.648;2023-05-10T13:00:22;100472.97;;;18.93;77.48
71109;BME280;59614;51.012;-1.648;2023-05-10T13:02:47;100465.34;;;19.21;83.68
71109;BME280;59614;51.012;-1.648;2023-05-10T13:05:13;100464.00;;;18.94;73.89